Time;durP1;ratioP1;P1;durP2;ratioP2;P2;SDS_P1;SDS_P2;PMS_P1;PMS_P2;Temp;Humidity;BMP_temperature;BMP_pressure;BME280_temperature;BME280_humidity;BME280_pressure;Samples;Min_cycle;Max_cycle;Signal;HPM_P1;HPM_P2
2023/05/04 00:00:43;;;;;;;11.00;8.10;;;9.70;99.90;;;;;;4939257;28;37213;-82
2023/05/04 00:03:10;;;;;;;11.05;7.72;;;9.70;99.90;;;;;;4930728;28;38581;-83
2023/05/04 00:05:36;;;;;;;11.65;7.45;;;9.70;99.90;;;;;;4949939;28;36219;-84
2023/05/04 00:08:02;;;;;;;12.30;8.90;;;9.70;99.90;;;;;;4936039;28;38945;-82
2023/05/04 00:10:28;;;;;;;12.60;7.65;;;9.60;99.90;;;;;;4925304;28;37515;-83
2023/05/04 00:12:54;;;;;;;13.27;8.07;;;9.60;99.90;;;;;;4923038;28;37685;-84
2023/05/04 00:15:20;;;;;;;15.30;8.25;;;9.50;99.90;;;;;;4937356;28;37884;-83
2023/05/04 00:17:46;;;;;;;9.65;8.57;;;9.50;99.90;;;;;;4935806;28;36532;-83
2023/05/04 00:20:12;;;;;;;11.30;8.75;;;9.40;99.90;;;;;;4928000;28;38999;-83
2023/05/04 00:22:38;;;;;;;11.80;8.67;;;9.40;99.90;;;;;;4925327;28;37304;-82
2023/05/04 00:25:05;;;;;;;15.95;9.25;;;9.40;99.90;;;;;;4937982;28;36946;-82
2023/05/04 00:27:32;;;;;;;15.30;9.25;;;9.40;99.90;;;;;;4924515;28;37599;-80
2023/05/04 00:29:58;;;;;;;11.47;9.17;;;9.30;99.90;;;;;;4921882;28;37657;-83
2023/05/04 00:32:24;;;;;;;15.30;8.77;;;9.30;99.90;;;;;;4921700;28;36750;-81
2023/05/04 00:34:50;;;;;;;12.63;10.03;;;9.30;99.90;;;;;;4934640;28;36189;-84
2023/05/04 00:37:16;;;;;;;13.80;9.00;;;9.20;99.90;;;;;;4921086;28;38068;-84
2023/05/04 00:39:42;;;;;;;13.87;9.57;;;9.20;99.90;;;;;;4920055;28;37469;-81
2023/05/04 00:42:08;;;;;;;15.07;10.13;;;9.10;99.90;;;;;;4918513;28;36931;-85
2023/05/04 00:44:34;;;;;;;13.17;10.30;;;9.10;99.90;;;;;;4927152;28;36806;-82
2023/05/04 00:47:02;;;;;;;13.60;8.77;;;9.10;99.90;;;;;;4921218;28;39261;-82
2023/05/04 00:49:28;;;;;;;14.93;9.97;;;9.10;99.90;;;;;;4923419;28;47228;-84
2023/05/04 00:51:56;;;;;;;15.03;9.43;;;9.00;99.90;;;;;;4928334;28;37217;-83
2023/05/04 00:54:22;;;;;;;14.33;10.20;;;9.10;99.90;;;;;;4947361;28;36923;-83
2023/05/04 00:56:49;;;;;;;17.93;11.03;;;9.00;99.90;;;;;;4928817;28;40901;-83
2023/05/04 00:59:15;;;;;;;15.37;10.10;;;9.00;99.90;;;;;;4938862;28;39410;-84
2023/05/04 03:11:22;;;;;;;13.17;11.33;;;8.00;99.90;;;;;;6043538;23;20019;31
2023/05/04 03:20:27;;;;;;;17.23;12.55;;;7.90;99.90;;;;;;5970589;23;19932;-81
2023/05/04 05:34:20;;;;;;;12.83;10.53;;;8.10;99.90;;;;;;6013100;23;20031;31
2023/05/04 05:49:10;;;;;;;13.57;10.65;;;8.20;99.90;;;;;;6014028;23;20041;-78
2023/05/04 05:52:38;;;;;;;16.77;10.70;;;8.20;99.90;;;;;;4917608;28;39454;-82
2023/05/04 05:55:51;;;;;;;16.10;10.87;;;8.30;99.90;;;;;;4922582;28;50251;-82
2023/05/04 05:58:51;;;;;;;14.40;10.67;;;8.40;99.90;;;;;;4888434;28;38195;-81
2023/05/04 06:05:05;;;;;;;14.32;10.35;;;8.60;99.90;;;;;;4931067;28;40098;-82
2023/05/04 06:07:44;;;;;;;14.50;10.32;;;8.60;99.90;;;;;;4944473;28;48106;-81
2023/05/04 06:10:18;;;;;;;11.53;10.07;;;8.80;99.90;;;;;;4923936;28;38066;-82
2023/05/04 06:12:49;;;;;;;12.90;10.13;;;8.90;99.90;;;;;;4936346;28;38046;-82
2023/05/04 06:15:20;;;;;;;16.40;10.40;;;8.90;99.90;;;;;;4942002;28;38837;-82
2023/05/04 06:17:48;;;;;;;13.10;9.95;;;9.00;99.90;;;;;;4949010;28;38685;-81
2023/05/04 06:20:23;;;;;;;16.20;10.37;;;9.10;99.90;;;;;;4938567;28;37173;-82
2023/05/04 06:23:21;;;;;;;16.48;9.43;;;9.30;99.90;;;;;;4943468;28;38866;-83
2023/05/04 06:25:59;;;;;;;14.70;9.93;;;9.40;99.90;;;;;;4904382;28;48813;-82
2023/05/04 06:28:38;;;;;;;17.65;9.50;;;9.40;99.90;;;;;;4955666;28;40174;-81
2023/05/04 06:31:09;;;;;;;11.50;9.15;;;9.60;99.90;;;;;;4937300;28;38731;-82
2023/05/04 06:33:48;;;;;;;12.65;9.50;;;9.70;99.90;;;;;;4948668;28;39292;-83
2023/05/04 06:36:18;;;;;;;13.65;8.98;;;9.90;99.90;;;;;;4921815;28;39048;-82
2023/05/04 06:38:57;;;;;;;12.98;9.32;;;9.90;99.90;;;;;;4953391;28;20066;-82
2023/05/04 06:41:28;;;;;;;12.10;9.35;;;10.10;99.90;;;;;;4936110;28;35462;-83
2023/05/04 06:43:58;;;;;;;13.00;9.32;;;10.10;99.90;;;;;;4937886;28;39613;-82
2023/05/04 06:46:27;;;;;;;13.05;9.00;;;10.20;99.90;;;;;;4913174;28;38365;-82
2023/05/04 06:48:57;;;;;;;11.23;8.98;;;10.30;99.90;;;;;;4928487;28;37535;-82
2023/05/04 06:51:45;;;;;;;12.30;8.63;;;10.30;99.90;;;;;;4928390;28;37575;-81
2023/05/04 06:54:33;;;;;;;12.18;8.93;;;10.30;99.90;;;;;;4916830;28;39414;-81
2023/05/04 06:57:47;;;;;;;11.20;8.43;;;10.40;99.90;;;;;;4903433;28;39780;-83
2023/05/04 07:00:48;;;;;;;10.38;8.77;;;10.60;99.90;;;;;;4914399;28;38629;-82
2023/05/04 07:23:27;;;;;;;10.90;7.88;;;11.30;99.90;;;;;;5099340;23;20036;-81
2023/05/04 07:25:54;;;;;;;13.18;8.32;;;11.40;99.90;;;;;;5020197;23;37318;-81
2023/05/04 07:28:50;;;;;;;14.23;8.60;;;11.40;99.90;;;;;;4913719;29;38715;-82
2023/05/04 07:32:13;;;;;;;13.48;9.02;;;11.70;99.90;;;;;;4913964;29;38427;-81
2023/05/04 07:34:39;;;;;;;14.50;9.33;;;11.80;99.90;;;;;;4949626;28;47390;-82
2023/05/04 07:37:17;;;;;;;14.93;8.52;;;11.70;99.90;;;;;;4928112;28;37532;-81
2023/05/04 07:42:43;;;;;;;11.63;8.18;;;11.80;99.90;;;;;;4957562;28;20214;-81
2023/05/04 07:45:10;;;;;;;11.30;8.68;;;11.80;99.90;;;;;;4939836;28;38327;-81
2023/05/04 07:47:37;;;;;;;10.18;8.23;;;11.90;99.90;;;;;;4950633;28;38603;-80
2023/05/04 07:50:03;;;;;;;13.25;8.38;;;12.30;99.90;;;;;;5346485;23;39006;-80
2023/05/04 07:52:29;;;;;;;9.90;7.78;;;12.70;99.90;;;;;;4915734;28;37672;-81
2023/05/04 07:54:58;;;;;;;13.57;7.82;;;13.10;99.90;;;;;;4922695;29;39379;-80
2023/05/04 08:00:17;;;;;;;12.50;8.38;;;13.10;99.90;;;;;;5228699;23;20040;-81
2023/05/04 08:02:43;;;;;;;13.40;7.72;;;13.30;99.90;;;;;;4939889;29;37102;-80
2023/05/04 08:08:43;;;;;;;10.95;7.95;;;13.30;99.90;;;;;;4938531;23;20043;-80
2023/05/04 08:11:45;;;;;;;9.65;7.32;;;13.50;99.90;;;;;;4928609;28;39041;-82
2023/05/04 08:14:21;;;;;;;10.23;8.02;;;13.70;99.90;;;;;;4924424;29;39186;-81
2023/05/04 08:16:47;;;;;;;10.68;7.40;;;13.80;99.90;;;;;;4905110;29;38028;-82
2023/05/04 08:19:14;;;;;;;8.20;6.93;;;14.10;99.90;;;;;;4901213;29;39154;-83
2023/05/04 08:21:40;;;;;;;15.68;7.47;;;14.40;99.90;;;;;;4901493;29;37718;-84
2023/05/04 08:24:06;;;;;;;13.88;8.38;;;14.30;99.90;;;;;;4891934;29;39105;-83
2023/05/04 08:26:35;;;;;;;12.07;7.10;;;14.20;99.90;;;;;;4892813;29;37979;-84
2023/05/04 08:29:09;;;;;;;13.80;8.07;;;14.20;99.90;;;;;;4899045;29;36511;-83
2023/05/04 08:31:36;;;;;;;13.85;7.82;;;14.30;99.90;;;;;;4893558;29;47377;-81
2023/05/04 08:34:03;;;;;;;9.70;7.43;;;14.50;99.90;;;;;;4898939;29;37579;-84
2023/05/04 08:36:30;;;;;;;12.20;7.13;;;14.70;99.90;;;;;;4893305;29;38278;-84
2023/05/04 08:38:56;;;;;;;12.48;7.38;;;15.00;99.90;;;;;;4889943;29;38747;-84
2023/05/04 08:41:26;;;;;;;14.25;7.53;;;15.20;99.90;;;;;;4893258;28;39360;-85
2023/05/04 08:43:52;;;;;;;11.32;8.30;;;15.10;99.90;;;;;;4906873;29;37045;-84
2023/05/04 08:46:29;;;;;;;14.00;7.55;;;15.30;99.90;;;;;;4895244;28;38807;-83
2023/05/04 08:48:56;;;;;;;11.35;6.80;;;15.60;99.90;;;;;;4890760;28;37826;-85
2023/05/04 08:51:23;;;;;;;11.65;8.13;;;15.60;99.90;;;;;;4887009;29;40685;-85
2023/05/04 08:53:50;;;;;;;12.95;7.32;;;15.80;99.90;;;;;;4892246;29;38202;-84
2023/05/04 08:56:21;;;;;;;9.68;7.82;;;15.70;99.90;;;;;;4903335;28;36794;-85
2023/05/04 08:58:51;;;;;;;9.10;6.65;;;15.90;99.90;;;;;;4895419;29;39448;-81
2023/05/04 09:01:21;;;;;;;14.35;7.55;;;15.90;99.90;;;;;;4885564;28;37526;-85
2023/05/04 09:03:48;;;;;;;8.48;6.80;;;16.30;99.90;;;;;;4889165;28;36975;-84
2023/05/04 09:06:15;;;;;;;8.07;6.43;;;16.30;99.90;;;;;;4883028;29;40954;-85
2023/05/04 09:08:41;;;;;;;8.38;6.35;;;16.50;99.90;;;;;;4887893;29;37975;-85
2023/05/04 09:11:08;;;;;;;12.32;7.80;;;16.70;99.90;;;;;;4894263;29;39603;-85
2023/05/04 09:13:34;;;;;;;8.00;6.80;;;16.80;99.90;;;;;;4896132;29;39039;-84
2023/05/04 09:16:00;;;;;;;9.50;6.90;;;16.90;99.90;;;;;;4889935;29;37769;-82
2023/05/04 09:18:41;;;;;;;12.07;7.32;;;17.30;99.90;;;;;;4894182;28;36940;-81
2023/05/04 09:21:08;;;;;;;11.00;7.22;;;17.40;99.90;;;;;;4894430;29;38008;-81
2023/05/04 09:23:48;;;;;;;9.32;7.25;;;17.40;99.90;;;;;;4892539;29;38176;-83
2023/05/04 09:26:14;;;;;;;8.55;6.15;;;17.50;99.90;;;;;;4895163;29;39877;-83
2023/05/04 09:28:40;;;;;;;9.13;6.32;;;17.70;99.90;;;;;;4917812;28;37443;-83
2023/05/04 09:31:07;;;;;;;10.63;6.53;;;17.70;99.90;;;;;;4895873;29;39694;-83
2023/05/04 09:33:33;;;;;;;10.98;6.85;;;17.80;99.90;;;;;;4910146;29;39463;-83
2023/05/04 09:36:21;;;;;;;11.55;6.47;;;18.20;99.90;;;;;;4904251;29;39023;-83
2023/05/04 09:38:48;;;;;;;17.45;7.18;;;18.40;99.90;;;;;;4903119;29;47233;-83
2023/05/04 09:41:17;;;;;;;10.98;6.70;;;18.30;99.90;;;;;;4895776;29;39726;-82
2023/05/04 09:43:43;;;;;;;8.05;6.45;;;18.40;99.90;;;;;;4909188;29;38246;-82
2023/05/04 09:46:18;;;;;;;13.77;7.18;;;18.10;99.90;;;;;;4904267;29;39820;-82
2023/05/04 09:48:55;;;;;;;10.18;6.13;;;18.00;99.90;;;;;;4901163;29;37068;-82
2023/05/04 09:51:23;;;;;;;9.10;7.05;;;18.10;99.90;;;;;;4900118;29;39356;-80
2023/05/04 09:53:54;;;;;;;9.25;7.05;;;18.00;99.90;;;;;;4902576;29;37244;-81
2023/05/04 09:56:45;;;;;;;8.10;6.85;;;18.30;99.90;;;;;;4905901;29;39355;-80
2023/05/04 09:59:12;;;;;;;9.98;7.00;;;18.60;99.90;;;;;;4915829;29;38062;-81
2023/05/04 10:01:39;;;;;;;11.82;6.93;;;18.70;99.90;;;;;;4917284;28;39134;-81
2023/05/04 10:04:05;;;;;;;9.77;6.68;;;18.70;99.90;;;;;;4901732;29;38911;-82
2023/05/04 10:06:32;;;;;;;12.13;7.47;;;18.70;99.90;;;;;;4906078;29;39965;-82
2023/05/04 10:09:00;;;;;;;11.55;7.00;;;18.50;99.90;;;;;;4904020;29;38024;-82
2023/05/04 10:11:29;;;;;;;9.40;6.70;;;18.80;99.90;;;;;;4897431;29;47823;-81
2023/05/04 10:13:59;;;;;;;10.90;7.35;;;18.80;99.90;;;;;;4896751;29;38645;-80
2023/05/04 10:16:48;;;;;;;12.40;6.78;;;19.10;99.90;;;;;;4902954;29;39757;-82
2023/05/04 10:19:36;;;;;;;8.98;6.38;;;19.20;99.90;;;;;;4904189;29;38222;-81
2023/05/04 10:22:19;;;;;;;11.75;6.93;;;19.50;99.90;;;;;;4915987;28;39201;-82
2023/05/04 10:25:04;;;;;;;12.38;6.97;;;19.60;99.90;;;;;;4894185;29;47221;-81
2023/05/04 10:28:08;;;;;;;9.10;6.72;;;19.50;99.90;;;;;;4889005;29;47598;-83
2023/05/04 10:30:35;;;;;;;11.20;6.85;;;19.70;99.90;;;;;;4911146;29;47117;-82
2023/05/04 10:33:07;;;;;;;9.73;6.60;;;20.00;99.90;;;;;;4903910;29;38975;-81
2023/05/04 10:35:33;;;;;;;9.60;6.65;;;19.80;99.90;;;;;;4893318;29;47170;-81
2023/05/04 10:38:00;;;;;;;10.18;6.88;;;19.80;99.90;;;;;;4904759;28;38082;-81
2023/05/04 10:40:36;;;;;;;10.27;6.88;;;19.90;99.90;;;;;;4901787;29;36143;-82
2023/05/04 10:43:12;;;;;;;10.15;6.40;;;20.20;99.90;;;;;;4901683;28;37779;-81
2023/05/04 10:45:43;;;;;;;14.50;7.68;;;20.50;99.90;;;;;;4900575;29;37396;-83
2023/05/04 10:48:09;;;;;;;13.82;7.40;;;20.90;99.90;;;;;;4901537;29;37037;-82
2023/05/04 10:50:51;;;;;;;10.48;7.00;;;20.70;99.90;;;;;;4899954;29;37237;-82
2023/05/04 10:53:17;;;;;;;8.88;7.32;;;21.00;99.90;;;;;;4903086;28;38958;-87
2023/05/04 10:55:46;;;;;;;8.45;6.75;;;20.60;99.90;;;;;;4909405;29;38487;-84
2023/05/04 10:58:15;;;;;;;8.18;6.47;;;20.70;99.90;;;;;;4924854;28;37286;-83
2023/05/04 11:00:44;;;;;;;11.93;7.57;;;21.30;99.90;;;;;;4922759;29;36842;-87
2023/05/04 11:03:14;;;;;;;11.38;7.43;;;21.20;99.90;;;;;;4909900;29;38121;-85
2023/05/04 11:05:53;;;;;;;9.40;7.38;;;21.60;99.90;;;;;;4908132;29;39778;-84
2023/05/04 11:08:29;;;;;;;9.05;6.72;;;21.60;99.90;;;;;;4909135;29;39238;-85
2023/05/04 11:11:05;;;;;;;10.57;6.78;;;21.30;99.90;;;;;;4906871;29;37501;-85
2023/05/04 11:13:45;;;;;;;12.00;6.68;;;21.90;99.90;;;;;;4914931;29;47832;-88
2023/05/04 11:16:12;;;;;;;12.45;8.20;;;22.10;99.90;;;;;;4898056;29;40185;-85
2023/05/04 11:18:40;;;;;;;9.68;7.00;;;21.70;99.90;;;;;;4903451;29;35952;-90
2023/05/04 11:21:07;;;;;;;11.55;7.50;;;21.60;99.90;;;;;;4896078;29;36217;-91
2023/05/04 11:23:34;;;;;;;8.48;7.45;;;21.30;99.90;;;;;;4911399;29;37663;-85
2023/05/04 11:26:08;;;;;;;10.10;7.07;;;21.10;99.90;;;;;;4907742;29;36923;-88
2023/05/04 11:28:38;;;;;;;7.03;6.13;;;21.60;99.90;;;;;;4902931;29;47427;-85
2023/05/04 11:31:14;;;;;;;12.65;7.50;;;22.00;99.90;;;;;;4904717;29;35399;-84
2023/05/04 11:33:48;;;;;;;11.20;7.90;;;22.50;99.90;;;;;;4908982;29;40291;-85
2023/05/04 11:36:15;;;;;;;8.20;6.57;;;22.30;99.90;;;;;;4905967;28;37531;-85
2023/05/04 11:38:42;;;;;;;8.55;6.63;;;22.20;99.90;;;;;;4919635;29;37208;-86
2023/05/04 11:41:09;;;;;;;10.20;7.25;;;22.70;99.90;;;;;;4909812;29;36644;-86
2023/05/04 11:43:36;;;;;;;8.30;6.80;;;22.80;99.90;;;;;;4916207;29;38110;-86
2023/05/04 11:46:04;;;;;;;10.38;6.93;;;22.50;99.90;;;;;;4914568;28;37237;-85
2023/05/04 11:48:32;;;;;;;10.77;7.30;;;22.90;99.90;;;;;;4918398;29;37585;-85
2023/05/04 11:50:58;;;;;;;8.45;6.97;;;23.50;99.90;;;;;;4916536;28;36159;-85
2023/05/04 11:53:25;;;;;;;10.85;6.43;;;23.10;99.90;;;;;;4916787;29;37629;-84
2023/05/04 11:55:53;;;;;;;13.18;6.45;;;23.30;99.90;;;;;;4913104;29;38772;-85
2023/05/04 11:58:26;;;;;;;8.75;6.35;;;23.40;99.90;;;;;;4916704;29;37318;-85
2023/05/04 12:00:56;;;;;;;8.52;6.43;;;23.70;99.90;;;;;;4926550;28;36923;-85
2023/05/04 12:03:33;;;;;;;10.05;7.35;;;23.90;99.90;;;;;;4914488;29;38933;-85
2023/05/04 12:06:03;;;;;;;11.07;7.00;;;23.70;99.90;;;;;;4919974;29;38704;-85
2023/05/04 12:08:43;;;;;;;9.30;6.80;;;23.40;99.90;;;;;;4913566;29;47331;-86
2023/05/04 12:11:24;;;;;;;10.98;6.28;;;23.50;99.90;;;;;;4907883;29;36670;-85
2023/05/04 12:14:05;;;;;;;10.40;7.03;;;23.70;99.90;;;;;;4914306;29;37971;-85
2023/05/04 12:16:33;;;;;;;12.32;6.65;;;23.40;99.90;;;;;;4910703;29;47184;-85
2023/05/04 12:19:11;;;;;;;7.85;6.78;;;23.50;99.90;;;;;;4911113;29;37972;-85
2023/05/04 12:21:50;;;;;;;9.13;6.60;;;23.60;99.90;;;;;;4909710;29;48720;-85
2023/05/04 12:24:16;;;;;;;8.98;6.35;;;23.60;99.90;;;;;;4906027;29;39076;-85
2023/05/04 12:26:43;;;;;;;10.65;7.25;;;23.60;99.90;;;;;;4920509;28;39286;-85
2023/05/04 12:29:13;;;;;;;8.63;6.50;;;23.50;99.90;;;;;;4893035;29;37349;-85
2023/05/04 12:31:39;;;;;;;12.70;7.10;;;23.40;99.90;;;;;;4905572;29;37228;-85
2023/05/04 12:34:13;;;;;;;9.68;7.15;;;23.10;99.90;;;;;;4913459;29;39207;-85
2023/05/04 12:36:40;;;;;;;9.88;7.28;;;22.90;99.90;;;;;;4925424;28;37524;-85
2023/05/04 12:39:06;;;;;;;10.02;7.45;;;22.60;99.90;;;;;;4905816;28;37072;-85
2023/05/04 12:41:32;;;;;;;10.05;7.30;;;22.60;99.90;;;;;;4917595;29;37779;-85
2023/05/04 12:43:58;;;;;;;10.70;7.28;;;22.70;99.90;;;;;;4911819;29;38250;-86
2023/05/04 12:46:24;;;;;;;13.30;8.05;;;22.90;99.90;;;;;;4914308;29;36150;-85
2023/05/04 12:48:50;;;;;;;12.55;8.38;;;23.20;99.90;;;;;;4910085;29;37159;-84
2023/05/04 12:51:16;;;;;;;11.35;8.32;;;23.30;99.90;;;;;;4910675;29;36300;-85
2023/05/04 12:53:43;;;;;;;9.38;8.02;;;23.30;99.90;;;;;;4912078;29;38009;-86
2023/05/04 12:56:12;;;;;;;9.95;8.55;;;23.40;99.90;;;;;;4907586;29;37476;-85
2023/05/04 12:58:38;;;;;;;10.82;8.98;;;23.60;99.90;;;;;;4912823;29;37341;-85
2023/05/04 13:01:04;;;;;;;12.95;10.07;;;23.30;99.90;;;;;;4911071;28;36292;-85
2023/05/04 13:03:31;;;;;;;12.63;9.55;;;23.70;99.90;;;;;;4907699;29;37925;-85
2023/05/04 13:05:57;;;;;;;12.43;9.75;;;23.80;99.90;;;;;;4908660;29;38411;-85
2023/05/04 13:08:24;;;;;;;12.18;9.52;;;23.80;99.90;;;;;;4909050;29;38980;-86
2023/05/04 13:10:51;;;;;;;16.08;9.18;;;23.30;99.90;;;;;;4906031;29;36338;-86
2023/05/04 13:13:20;;;;;;;12.27;9.95;;;23.50;99.90;;;;;;4910190;28;39656;-85
2023/05/04 13:15:49;;;;;;;11.90;9.48;;;23.70;99.90;;;;;;4907310;29;38307;-85
2023/05/04 13:18:15;;;;;;;10.90;9.20;;;23.60;99.90;;;;;;4907376;29;37381;-84
2023/05/04 13:20:41;;;;;;;12.60;10.48;;;23.90;99.90;;;;;;4913558;29;36454;-86
2023/05/04 13:23:11;;;;;;;13.40;9.63;;;23.80;99.90;;;;;;4907584;29;38196;-86
2023/05/04 13:25:37;;;;;;;15.50;10.73;;;24.30;99.90;;;;;;4905737;29;38904;-87
2023/05/04 13:28:03;;;;;;;12.48;10.38;;;24.70;99.90;;;;;;4902852;29;37091;-86
2023/05/04 13:30:29;;;;;;;13.68;10.90;;;24.80;99.90;;;;;;4904559;29;37738;-84
2023/05/04 13:32:55;;;;;;;13.45;10.85;;;25.20;99.90;;;;;;4908270;29;40439;-84
2023/05/04 13:35:22;;;;;;;16.52;11.55;;;25.00;99.90;;;;;;4910666;29;40004;-86
2023/05/04 13:37:49;;;;;;;12.32;9.73;;;25.00;99.90;;;;;;4910848;29;38181;-85
2023/05/04 13:40:15;;;;;;;10.50;9.00;;;25.30;99.90;;;;;;4905185;29;39250;-83
2023/05/04 13:42:41;;;;;;;10.65;8.85;;;25.60;99.90;;;;;;4911312;29;39741;-85
2023/05/04 13:45:11;;;;;;;10.57;7.03;;;25.70;99.90;;;;;;4907410;29;39326;-81
2023/05/04 13:47:39;;;;;;;9.23;7.95;;;26.10;99.90;;;;;;4898864;29;37120;-90
2023/05/04 13:50:11;;;;;;;11.57;7.18;;;25.70;99.90;;;;;;4916685;28;37989;-89
2023/05/04 13:52:40;;;;;;;9.95;6.68;;;25.20;99.90;;;;;;4916981;29;46978;-90
2023/05/04 13:55:06;;;;;;;10.52;7.53;;;25.10;99.90;;;;;;4914133;28;38936;-89
2023/05/04 13:57:32;;;;;;;12.23;7.90;;;24.80;99.90;;;;;;4910978;29;38484;-88
2023/05/04 14:00:04;;;;;;;12.93;6.97;;;24.80;99.90;;;;;;4910161;29;37623;-86
2023/05/04 14:02:31;;;;;;;11.10;7.45;;;25.10;99.90;;;;;;4911716;29;39568;-88
2023/05/04 14:04:57;;;;;;;10.70;7.07;;;25.30;99.90;;;;;;4912109;28;39577;-90
2023/05/04 14:07:24;;;;;;;10.20;7.22;;;25.40;99.90;;;;;;4904915;29;38308;-89
2023/05/04 14:09:58;;;;;;;8.27;6.97;;;25.60;99.90;;;;;;4912623;29;37513;-88
2023/05/04 14:12:24;;;;;;;9.68;7.50;;;25.70;99.90;;;;;;4910161;29;37828;-89
2023/05/04 14:14:50;;;;;;;13.93;7.35;;;25.70;99.90;;;;;;4909589;29;38375;-89
2023/05/04 14:17:17;;;;;;;11.10;7.30;;;25.10;99.90;;;;;;4899190;29;40132;-86
2023/05/04 14:19:44;;;;;;;11.68;6.85;;;24.40;99.90;;;;;;4912493;29;38848;-89
2023/05/04 14:22:13;;;;;;;11.90;6.95;;;24.40;99.90;;;;;;4908031;29;39287;-89
2023/05/04 14:24:39;;;;;;;10.70;6.80;;;24.60;99.90;;;;;;4913886;29;37620;-87
2023/05/04 14:27:06;;;;;;;11.10;7.38;;;24.70;99.90;;;;;;4899084;29;37904;-85
2023/05/04 14:29:33;;;;;;;10.10;7.72;;;25.00;99.90;;;;;;4911224;29;36428;-88
2023/05/04 14:32:02;;;;;;;9.68;6.32;;;25.10;99.90;;;;;;4915199;28;39465;-88
2023/05/04 14:34:28;;;;;;;8.82;6.25;;;25.70;99.90;;;;;;4907342;29;47216;-86
2023/05/04 14:36:54;;;;;;;14.38;7.07;;;25.30;99.90;;;;;;4921870;28;37270;-88
2023/05/04 14:39:21;;;;;;;12.57;6.38;;;25.00;99.90;;;;;;4909058;28;36256;-87
2023/05/04 14:41:47;;;;;;;9.13;6.93;;;24.90;99.90;;;;;;4932033;28;37790;-89
2023/05/04 14:44:16;;;;;;;14.20;7.15;;;24.80;99.90;;;;;;4915220;29;37954;-88
2023/05/04 14:46:42;;;;;;;8.57;6.35;;;24.40;99.90;;;;;;4916907;29;39513;-89
2023/05/04 14:49:08;;;;;;;10.90;6.50;;;24.20;99.90;;;;;;4915907;29;37927;-87
2023/05/04 14:51:35;;;;;;;11.25;5.60;;;23.90;99.90;;;;;;4912312;28;39387;-89
2023/05/04 14:54:01;;;;;;;11.18;6.85;;;23.70;99.90;;;;;;4905579;29;38662;-83
2023/05/04 14:56:27;;;;;;;10.35;5.97;;;24.00;99.90;;;;;;4906599;29;36934;-83
2023/05/04 14:59:00;;;;;;;8.77;6.30;;;24.30;99.90;;;;;;4909183;29;36151;-85
2023/05/04 15:01:26;;;;;;;10.35;6.18;;;24.40;99.90;;;;;;4902598;29;39404;-84
2023/05/04 15:03:52;;;;;;;9.88;5.68;;;24.50;99.90;;;;;;4906582;29;39453;-84
2023/05/04 15:06:18;;;;;;;10.57;6.60;;;24.20;99.90;;;;;;4899508;28;37278;-85
2023/05/04 15:08:45;;;;;;;13.35;6.28;;;24.00;99.90;;;;;;4901651;28;35962;-85
2023/05/04 15:11:11;;;;;;;11.95;6.68;;;24.00;99.90;;;;;;4902032;29;38634;-85
2023/05/04 15:13:37;;;;;;;10.77;6.40;;;23.70;99.90;;;;;;4897165;29;37490;-84
2023/05/04 15:16:03;;;;;;;12.68;6.50;;;23.70;99.90;;;;;;4902967;28;39545;-84
2023/05/04 15:18:30;;;;;;;7.03;5.70;;;23.70;99.90;;;;;;4903825;29;36426;-84
2023/05/04 15:20:56;;;;;;;8.43;6.32;;;23.60;99.90;;;;;;4900914;29;39626;-84
2023/05/04 15:23:22;;;;;;;8.48;5.60;;;23.50;99.90;;;;;;4903523;28;37876;-82
2023/05/04 15:25:48;;;;;;;8.48;5.57;;;23.70;99.90;;;;;;4897358;29;37450;-83
2023/05/04 15:28:15;;;;;;;11.55;6.20;;;24.00;99.90;;;;;;4898162;29;38930;-83
2023/05/04 15:30:41;;;;;;;11.20;6.28;;;24.00;99.90;;;;;;4912602;28;40357;-83
2023/05/04 15:33:08;;;;;;;7.03;5.90;;;24.00;99.90;;;;;;4899346;29;37798;-83
2023/05/04 15:35:35;;;;;;;15.38;6.88;;;24.10;99.90;;;;;;4897679;29;38277;-83
2023/05/04 15:38:02;;;;;;;10.55;7.05;;;24.20;99.90;;;;;;4917473;28;37621;-85
2023/05/04 15:40:28;;;;;;;11.18;6.30;;;24.10;99.90;;;;;;4903033;29;39778;-84
2023/05/04 15:42:54;;;;;;;9.32;5.90;;;24.10;99.90;;;;;;4901985;29;38089;-83
2023/05/04 15:45:21;;;;;;;11.00;7.07;;;24.10;99.90;;;;;;4900774;29;39396;-84
2023/05/04 15:47:47;;;;;;;9.93;6.75;;;24.00;99.90;;;;;;4898661;29;38996;-85
2023/05/04 15:50:13;;;;;;;8.05;6.25;;;23.80;99.90;;;;;;4894642;28;39813;-83
2023/05/04 15:52:39;;;;;;;9.05;6.95;;;23.70;99.90;;;;;;4903682;29;38692;-84
2023/05/04 15:55:06;;;;;;;11.70;6.72;;;23.90;99.90;;;;;;4904323;28;36524;-83
2023/05/04 15:57:32;;;;;;;13.00;6.75;;;23.80;99.90;;;;;;4901127;29;37741;-84
2023/05/04 15:59:58;;;;;;;8.65;7.30;;;23.60;99.90;;;;;;4904296;29;39537;-83
2023/05/04 16:02:26;;;;;;;24.25;8.05;;;23.70;99.90;;;;;;4903218;28;39145;-84
2023/05/04 16:04:52;;;;;;;11.00;7.13;;;23.80;99.90;;;;;;4889383;29;39882;-83
2023/05/04 16:07:19;;;;;;;12.38;7.85;;;23.80;99.90;;;;;;4887081;29;38399;-83
2023/05/04 16:09:45;;;;;;;11.35;8.13;;;23.60;99.90;;;;;;4898596;29;37794;-85
2023/05/04 16:12:11;;;;;;;9.77;7.32;;;23.50;99.90;;;;;;4913710;28;37459;-84
2023/05/04 16:14:40;;;;;;;10.07;6.90;;;23.60;99.90;;;;;;4899246;29;36938;-83
2023/05/04 16:17:06;;;;;;;15.20;7.32;;;23.90;99.90;;;;;;4896949;29;37987;-83
2023/05/04 16:19:32;;;;;;;9.60;7.00;;;24.20;99.90;;;;;;4906360;29;38753;-84
2023/05/04 16:21:58;;;;;;;10.57;6.72;;;24.20;99.90;;;;;;4901279;29;37402;-84
2023/05/04 16:24:25;;;;;;;9.30;6.70;;;24.40;99.90;;;;;;4898270;29;38674;-83
2023/05/04 16:26:52;;;;;;;13.80;7.32;;;24.40;99.90;;;;;;4898468;28;37883;-82
2023/05/04 16:29:19;;;;;;;9.57;6.20;;;24.40;99.90;;;;;;4902073;29;37866;-85
2023/05/04 16:31:46;;;;;;;12.45;6.80;;;24.40;99.90;;;;;;4912100;28;40136;-83
2023/05/04 16:34:12;;;;;;;12.20;6.20;;;24.40;99.90;;;;;;4911417;28;38802;-83
2023/05/04 16:36:38;;;;;;;11.88;6.40;;;24.40;99.90;;;;;;4895601;29;39246;-83
2023/05/04 16:39:06;;;;;;;12.75;6.10;;;24.40;99.90;;;;;;4898165;29;41142;-83
2023/05/04 16:41:32;;;;;;;9.70;5.82;;;24.30;99.90;;;;;;4903554;29;39146;-84
2023/05/04 16:43:58;;;;;;;9.90;5.82;;;24.20;99.90;;;;;;4904152;29;38248;-83
2023/05/04 16:46:24;;;;;;;11.00;5.78;;;24.00;99.90;;;;;;4907473;29;37015;-84
2023/05/04 16:48:50;;;;;;;14.30;6.13;;;24.00;99.90;;;;;;4895139;29;39362;-84
2023/05/04 16:51:19;;;;;;;8.20;5.20;;;24.00;99.90;;;;;;4896177;29;38192;-83
2023/05/04 16:53:45;;;;;;;7.38;5.22;;;24.00;99.90;;;;;;4894554;29;38918;-83
2023/05/04 16:56:18;;;;;;;8.77;5.20;;;24.10;99.90;;;;;;4896575;29;36990;-82
2023/05/04 16:58:50;;;;;;;10.43;5.20;;;24.20;99.90;;;;;;4905806;29;39588;-82
2023/05/04 17:01:16;;;;;;;9.57;5.20;;;24.20;99.90;;;;;;4902014;28;38567;-82
2023/05/04 17:03:43;;;;;;;10.18;5.60;;;24.20;99.90;;;;;;4922314;28;38210;-83
2023/05/04 17:06:09;;;;;;;9.35;5.43;;;24.10;99.90;;;;;;4908399;28;37770;-82
2023/05/04 17:08:38;;;;;;;6.32;4.80;;;24.10;99.90;;;;;;4879842;28;1359985;-82
2023/05/04 17:11:07;;;;;;;10.38;4.63;;;23.80;99.90;;;;;;4909392;29;38802;-82
2023/05/04 17:13:36;;;;;;;7.88;4.80;;;23.60;99.90;;;;;;4913298;29;37316;-83
2023/05/04 17:16:03;;;;;;;7.82;4.47;;;23.50;99.90;;;;;;4899608;29;36924;-83
2023/05/04 17:18:32;;;;;;;8.00;4.93;;;23.40;99.90;;;;;;4907742;29;39191;-82
2023/05/04 17:20:58;;;;;;;10.57;4.60;;;23.10;99.90;;;;;;4913555;28;38323;-82
2023/05/04 17:23:24;;;;;;;8.77;5.00;;;22.90;99.90;;;;;;4910700;29;37002;-83
2023/05/04 17:25:50;;;;;;;6.70;4.43;;;22.80;99.90;;;;;;4911423;29;36256;-83
2023/05/04 17:28:17;;;;;;;6.80;4.45;;;22.80;99.90;;;;;;4906032;29;39067;-82
2023/05/04 17:30:43;;;;;;;7.13;4.50;;;22.70;99.90;;;;;;4914622;28;38560;-82
2023/05/04 17:33:09;;;;;;;9.23;3.97;;;22.80;99.90;;;;;;4912344;29;38919;-82
2023/05/04 17:35:35;;;;;;;6.05;4.40;;;22.90;99.90;;;;;;4908215;29;37222;-82
2023/05/04 17:38:01;;;;;;;7.70;4.82;;;22.90;99.90;;;;;;4909215;29;38707;-83
2023/05/04 17:40:28;;;;;;;8.73;5.00;;;22.80;99.90;;;;;;4908139;29;38614;-83
2023/05/04 17:42:54;;;;;;;5.68;4.45;;;22.80;99.90;;;;;;4905813;29;37182;-83
2023/05/04 17:45:20;;;;;;;10.52;4.30;;;22.80;99.90;;;;;;4907938;29;37368;-83
2023/05/04 17:47:49;;;;;;;5.13;4.10;;;22.70;99.90;;;;;;4908975;29;37987;-83
2023/05/04 17:50:16;;;;;;;5.90;4.60;;;22.70;99.90;;;;;;4910280;29;37587;-83
2023/05/04 17:52:42;;;;;;;5.72;4.00;;;22.50;99.90;;;;;;4907850;28;38562;-83
2023/05/04 17:55:08;;;;;;;7.97;4.20;;;22.40;99.90;;;;;;4902910;29;37392;-83
2023/05/04 17:57:34;;;;;;;5.05;3.47;;;22.30;99.90;;;;;;4906864;29;37612;-82
2023/05/04 18:00:00;;;;;;;6.00;3.45;;;22.30;99.90;;;;;;4909875;29;38360;-83
2023/05/04 18:02:28;;;;;;;5.35;3.17;;;22.30;99.90;;;;;;4906993;29;38711;-82
2023/05/04 18:04:54;;;;;;;5.50;3.60;;;22.20;99.90;;;;;;4926729;28;35893;-83
2023/05/04 18:07:21;;;;;;;8.40;4.60;;;22.10;99.90;;;;;;4898455;29;38001;-82